sensor_id;sensor_type;location;lat;lon;timestamp;temperature;humidity
53876;DHT22;39789;53.216;5.624;2023-05-07T18:30:37;17.10;78.50
53876;DHT22;39789;53.216;5.624;2023-05-07T18:33:03;17.00;78.60
53876;DHT22;39789;53.216;5.624;2023-05-07T18:35:30;16.90;78.90
53876;DHT22;39789;53.216;5.624;2023-05-07T18:37:58;16.90;79.20
53876;DHT22;39789;53.216;5.624;2023-05-07T18:40:25;16.80;79.30
53876;DHT22;39789;53.216;5.624;2023-05-07T18:42:51;16.80;79.30
53876;DHT22;39789;53.216;5.624;2023-05-07T18:45:16;16.80;79.50
53876;DHT22;39789;53.216;5.624;2023-05-07T18:47:42;16.70;79.50
53876;DHT22;39789;53.216;5.624;2023-05-07T18:50:08;16.60;79.60
53876;DHT22;39789;53.216;5.624;2023-05-07T18:52:34;16.60;79.70
53876;DHT22;39789;53.216;5.624;2023-05-07T18:55:00;16.60;79.90
53876;DHT22;39789;53.216;5.624;2023-05-07T18:57:25;16.50;79.80
53876;DHT22;39789;53.216;5.624;2023-05-07T18:59:54;16.50;79.90
53876;DHT22;39789;53.216;5.624;2023-05-07T19:02:19;16.40;80.10
53876;DHT22;39789;53.216;5.624;2023-05-07T19:04:45;16.40;80.20
53876;DHT22;39789;53.216;5.624;2023-05-07T19:07:11;16.30;80.20
53876;DHT22;39789;53.216;5.624;2023-05-07T19:09:36;16.30;80.40
53876;DHT22;39789;53.216;5.624;2023-05-07T19:12:02;16.30;80.40
53876;DHT22;39789;53.216;5.624;2023-05-07T19:14:28;16.20;80.50
53876;DHT22;39789;53.216;5.624;2023-05-07T19:16:54;16.20;80.50
53876;DHT22;39789;53.216;5.624;2023-05-07T19:19:20;16.10;80.60
53876;DHT22;39789;53.216;5.624;2023-05-07T19:21:45;16.00;80.70
53876;DHT22;39789;53.216;5.624;2023-05-07T19:24:11;16.00;80.90
53876;DHT22;39789;53.216;5.624;2023-05-07T19:26:37;16.00;81.00
53876;DHT22;39789;53.216;5.624;2023-05-07T19:29:04;15.90;81.20
53876;DHT22;39789;53.216;5.624;2023-05-07T19:31:30;15.90;81.30
53876;DHT22;39789;53.216;5.624;2023-05-07T19:33:58;15.80;81.40
53876;DHT22;39789;53.216;5.624;2023-05-07T19:36:24;15.80;81.50
53876;DHT22;39789;53.216;5.624;2023-05-07T19:38:50;15.80;81.50
53876;DHT22;39789;53.216;5.624;2023-05-07T19:41:19;15.70;81.40
53876;DHT22;39789;53.216;5.624;2023-05-07T19:43:46;15.70;81.60
53876;DHT22;39789;53.216;5.624;2023-05-07T19:46:12;15.70;81.50
53876;DHT22;39789;53.216;5.624;2023-05-07T19:48:38;15.60;81.50
53876;DHT22;39789;53.216;5.624;2023-05-07T19:51:03;15.60;81.70
53876;DHT22;39789;53.216;5.624;2023-05-07T19:53:29;15.50;81.70
53876;DHT22;39789;53.216;5.624;2023-05-07T19:56:06;15.40;81.80
53876;DHT22;39789;53.216;5.624;2023-05-07T19:58:32;15.40;82.00
53876;DHT22;39789;53.216;5.624;2023-05-07T20:00:57;15.40;82.10
53876;DHT22;39789;53.216;5.624;2023-05-07T20:03:23;15.30;82.10
53876;DHT22;39789;53.216;5.624;2023-05-07T20:05:49;15.20;82.20
53876;DHT22;39789;53.216;5.624;2023-05-07T20:08:15;15.20;82.20
53876;DHT22;39789;53.216;5.624;2023-05-07T20:10:41;15.20;82.20
53876;DHT22;39789;53.216;5.624;2023-05-07T20:13:06;15.10;82.30
53876;DHT22;39789;53.216;5.624;2023-05-07T20:15:32;15.10;82.40
53876;DHT22;39789;53.216;5.624;2023-05-07T20:18:00;15.00;82.40
53876;DHT22;39789;53.216;5.624;2023-05-07T20:20:25;15.00;82.60
53876;DHT22;39789;53.216;5.624;2023-05-07T20:22:51;14.90;82.80
53876;DHT22;39789;53.216;5.624;2023-05-07T20:25:16;14.90;82.90
53876;DHT22;39789;53.216;5.624;2023-05-07T20:27:42;14.90;82.90
53876;DHT22;39789;53.216;5.624;2023-05-07T20:30:08;14.80;83.00
53876;DHT22;39789;53.216;5.624;2023-05-07T20:32:34;14.80;83.10
53876;DHT22;39789;53.216;5.624;2023-05-07T20:34:59;14.80;84.00
53876;DHT22;39789;53.216;5.624;2023-05-07T20:37:25;14.70;83.30
53876;DHT22;39789;53.216;5.624;2023-05-07T20:39:51;14.70;84.00
53876;DHT22;39789;53.216;5.624;2023-05-07T20:42:17;14.70;83.50
53876;DHT22;39789;53.216;5.624;2023-05-07T20:44:43;14.60;83.40
53876;DHT22;39789;53.216;5.624;2023-05-07T20:47:08;14.60;83.50
53876;DHT22;39789;53.216;5.624;2023-05-07T20:49:37;14.60;83.70
53876;DHT22;39789;53.216;5.624;2023-05-07T20:52:04;14.50;83.60
53876;DHT22;39789;53.216;5.624;2023-05-07T20:54:30;14.50;83.80
53876;DHT22;39789;53.216;5.624;2023-05-07T20:56:56;14.40;83.90
53876;DHT22;39789;53.216;5.624;2023-05-07T20:59:22;14.30;84.10
53876;DHT22;39789;53.216;5.624;2023-05-07T21:01:48;14.30;84.20
53876;DHT22;39789;53.216;5.624;2023-05-07T21:04:14;14.20;84.20
53876;DHT22;39789;53.216;5.624;2023-05-07T21:06:40;14.20;84.20
53876;DHT22;39789;53.216;5.624;2023-05-07T21:09:05;14.20;84.20
53876;DHT22;39789;53.216;5.624;2023-05-07T21:11:32;14.20;84.20
53876;DHT22;39789;53.216;5.624;2023-05-07T21:13:57;14.20;84.20
53876;DHT22;39789;53.216;5.624;2023-05-07T21:16:23;14.20;84.20
53876;DHT22;39789;53.216;5.624;2023-05-07T21:18:49;14.20;84.20
53876;DHT22;39789;53.216;5.624;2023-05-07T21:21:14;14.20;84.00
53876;DHT22;39789;53.216;5.624;2023-05-07T21:23:43;14.20;84.00
53876;DHT22;39789;53.216;5.624;2023-05-07T21:26:09;14.20;84.00
53876;DHT22;39789;53.216;5.624;2023-05-07T21:28:34;14.20;84.00
53876;DHT22;39789;53.216;5.624;2023-05-07T21:31:00;14.20;84.00
53876;DHT22;39789;53.216;5.624;2023-05-07T21:33:26;14.20;83.90
53876;DHT22;39789;53.216;5.624;2023-05-07T21:35:51;14.20;84.00
53876;DHT22;39789;53.216;5.624;2023-05-07T21:38:17;14.20;83.90
53876;DHT22;39789;53.216;5.624;2023-05-07T21:40:43;14.20;83.90
53876;DHT22;39789;53.216;5.624;2023-05-07T21:43:09;14.10;83.80
53876;DHT22;39789;53.216;5.624;2023-05-07T21:45:35;14.10;83.80
53876;DHT22;39789;53.216;5.624;2023-05-07T21:48:00;14.10;83.80
53876;DHT22;39789;53.216;5.624;2023-05-07T21:50:26;14.10;83.80
53876;DHT22;39789;53.216;5.624;2023-05-07T21:52:51;14.10;83.90
53876;DHT22;39789;53.216;5.624;2023-05-07T21:55:17;14.10;84.10
53876;DHT22;39789;53.216;5.624;2023-05-07T21:57:43;14.00;84.10
53876;DHT22;39789;53.216;5.624;2023-05-07T22:00:09;14.00;84.20
53876;DHT22;39789;53.216;5.624;2023-05-07T22:02:35;13.90;84.30
53876;DHT22;39789;53.216;5.624;2023-05-07T22:05:00;13.90;84.50
53876;DHT22;39789;53.216;5.624;2023-05-07T22:07:26;13.80;84.50
53876;DHT22;39789;53.216;5.624;2023-05-07T22:09:52;13.80;84.60
53876;DHT22;39789;53.216;5.624;2023-05-07T22:12:17;13.70;84.60
53876;DHT22;39789;53.216;5.624;2023-05-07T22:14:43;13.80;84.60
53876;DHT22;39789;53.216;5.624;2023-05-07T22:17:08;13.60;84.60
53876;DHT22;39789;53.216;5.624;2023-05-07T22:19:34;13.60;84.60
53876;DHT22;39789;53.216;5.624;2023-05-07T22:21:59;13.60;85.20
53876;DHT22;39789;53.216;5.624;2023-05-07T22:24:25;13.50;84.50
53876;DHT22;39789;53.216;5.624;2023-05-07T22:26:50;13.50;84.50
53876;DHT22;39789;53.216;5.624;2023-05-07T22:29:16;13.50;84.50
53876;DHT22;39789;53.216;5.624;2023-05-07T22:31:42;13.50;84.20
53876;DHT22;39789;53.216;5.624;2023-05-07T22:34:07;13.50;84.10
53876;DHT22;39789;53.216;5.624;2023-05-07T22:36:33;13.50;84.00
53876;DHT22;39789;53.216;5.624;2023-05-07T22:38:59;13.40;83.80
53876;DHT22;39789;53.216;5.624;2023-05-07T22:41:25;13.50;83.80
53876;DHT22;39789;53.216;5.624;2023-05-07T22:43:51;13.80;83.90
53876;DHT22;39789;53.216;5.624;2023-05-07T22:46:16;13.40;83.50
53876;DHT22;39789;53.216;5.624;2023-05-07T23:36:24;12.80;84.10
53876;DHT22;39789;53.216;5.624;2023-05-07T23:38:50;12.80;84.20
53876;DHT22;39789;53.216;5.624;2023-05-07T23:41:16;12.80;84.10
53876;DHT22;39789;53.216;5.624;2023-05-07T23:43:41;12.80;84.20
53876;DHT22;39789;53.216;5.624;2023-05-07T23:46:07;12.70;84.00
53876;DHT22;39789;53.216;5.624;2023-05-07T23:48:32;12.70;84.00
53876;DHT22;39789;53.216;5.624;2023-05-07T23:50:58;12.70;84.00
53876;DHT22;39789;53.216;5.624;2023-05-07T23:53:23;12.60;84.00
53876;DHT22;39789;53.216;5.624;2023-05-07T23:55:49;13.20;84.50
53876;DHT22;39789;53.216;5.624;2023-05-07T23:58:15;12.50;84.60
